University of Arkansas, Arkansas
Current Conditions -  °F | °C
As of 11:53 PM on Tuesday 25 Nov 2014 (Local Time) from KLLQ Reporting Station
Clear Clear  
Wind Chill: 32°   Ceiling: Unl
Heat Index: 32°   Visibility: 10mi
Dew Point: 29°   Wind: 0mph
Humidity: 88%   Direction: NA
Pressure: 30.17"   Gusts: NA
Location:  33.6289°N, 91.7906°W
Report Text: KLLQ 260553Z AUTO 00000KT 10SM CLR 00/M02 A3017 RMK AO2 SLP218 T00001017 10056 20000 401280000 57012
Loading
Personal Weather Stations






























Interactive Weather Map New forecast layout! Learn more

10-Day Weather Forecast

Advertisements
Track Severe Weather on mobile